createdAt,value
2022-08-21T03:05:38.247Z,9.55
2022-08-21T03:08:11.449Z,10.23
2022-08-21T03:10:41.024Z,10.27
2022-08-21T03:13:08.653Z,10.63
2022-08-21T03:15:36.065Z,9.90
2022-08-21T03:18:06.091Z,9.68
2022-08-21T03:20:35.614Z,9.90
2022-08-21T03:23:04.545Z,9.07
2022-08-21T03:25:41.173Z,10.45
2022-08-21T03:28:14.026Z,10.20
2022-08-21T03:30:47.096Z,10.25
2022-08-21T03:33:15.096Z,10.65
2022-08-21T03:35:50.476Z,10.20
2022-08-21T03:38:17.783Z,9.60
2022-08-21T03:40:45.348Z,9.73
2022-08-21T03:43:12.510Z,11.02
2022-08-21T03:45:40.420Z,9.98
2022-08-21T03:48:08.642Z,10.85
2022-08-21T03:50:41.304Z,11.07
2022-08-21T03:53:17.085Z,11.65
2022-08-21T03:55:49.045Z,10.85
2022-08-21T05:30:11.770Z,9.63
2022-08-21T05:32:39.052Z,9.98
2022-08-21T05:35:08.148Z,10.25
2022-08-21T05:37:35.985Z,10.18
2022-08-21T07:20:33.883Z,9.35
2022-08-21T07:23:07.821Z,9.88
2022-08-21T07:30:29.413Z,8.48
2022-08-21T07:32:57.722Z,9.70
2022-08-21T07:35:25.806Z,8.35
2022-08-21T07:37:52.849Z,8.38
2022-08-21T07:40:20.791Z,9.05
2022-08-21T07:42:51.172Z,8.73
2022-08-21T07:45:24.715Z,8.85
2022-08-21T07:47:56.701Z,9.57
2022-08-21T07:50:25.542Z,8.85
2022-08-21T07:52:53.653Z,9.07
2022-08-21T07:55:22.745Z,9.82
2022-08-21T09:03:51.019Z,8.10
2022-08-21T09:06:30.784Z,7.80
2022-08-21T09:09:17.338Z,6.80
2022-08-21T23:28:50.440Z,4.70
2022-08-21T23:31:33.058Z,4.88
2022-08-21T23:34:35.365Z,4.33
2022-08-21T23:37:53.885Z,4.88
2022-08-21T23:40:50.955Z,5.00
2022-08-21T23:43:41.950Z,5.78
2022-08-21T23:46:34.798Z,4.90
2022-08-21T23:49:47.908Z,4.63
2022-08-21T23:52:24.087Z,4.65
2022-08-21T23:55:30.738Z,5.10
2022-08-21T23:58:22.658Z,4.72
